Time;durP1;ratioP1;P1;durP2;ratioP2;P2;SDS_P1;SDS_P2;PMS_P1;PMS_P2;Temp;Humidity;BMP_temperature;BMP_pressure;BME280_temperature;BME280_humidity;BME280_pressure;Samples;Min_cycle;Max_cycle;Signal;HPM_P1;HPM_P2
2022/04/07 00:00:46;;;;;;;9.68;4.80;;;9.40;99.90;;;;;;5090928;28;20781;-76
2022/04/07 00:03:11;;;;;;;8.02;4.60;;;9.50;99.90;;;;;;5090641;28;20405;-76
2022/04/07 00:05:37;;;;;;;7.97;4.28;;;9.50;99.90;;;;;;5072961;28;20907;-76
2022/04/07 00:08:03;;;;;;;8.98;4.25;;;9.50;99.90;;;;;;5090213;28;20402;-76
2022/04/07 00:10:29;;;;;;;9.60;4.43;;;9.50;99.90;;;;;;5091308;28;20463;-76
2022/04/07 00:12:54;;;;;;;9.63;4.90;;;9.50;99.90;;;;;;5090575;28;20398;-76
2022/04/07 00:15:21;;;;;;;7.88;4.57;;;9.50;99.90;;;;;;5091487;28;20803;-76
2022/04/07 00:17:47;;;;;;;7.53;4.32;;;9.50;99.90;;;;;;5091032;28;20409;-76
2022/04/07 00:20:12;;;;;;;8.65;4.15;;;9.50;99.90;;;;;;5090863;28;20942;-76
2022/04/07 00:22:39;;;;;;;8.27;4.30;;;9.50;99.90;;;;;;5091052;28;20433;-76
2022/04/07 00:25:05;;;;;;;9.55;4.53;;;9.40;99.90;;;;;;5090913;28;20908;-76
2022/04/07 00:27:31;;;;;;;8.13;3.88;;;9.50;99.90;;;;;;5089554;28;20413;-77
2022/04/07 00:29:57;;;;;;;9.57;4.60;;;9.50;99.90;;;;;;5089571;28;20397;-77
2022/04/07 00:32:23;;;;;;;11.55;4.60;;;9.50;99.90;;;;;;5090908;28;21086;-76
2022/04/07 00:34:54;;;;;;;9.13;3.80;;;9.50;99.90;;;;;;5090891;28;20398;-77
2022/04/07 00:37:25;;;;;;;11.40;4.50;;;9.40;99.90;;;;;;5089252;28;20462;-77
2022/04/07 00:39:51;;;;;;;8.05;3.72;;;9.40;99.90;;;;;;5090509;28;20430;-77
2022/04/07 00:42:18;;;;;;;10.98;4.15;;;9.40;99.90;;;;;;5090647;28;20409;-77
2022/04/07 00:44:44;;;;;;;10.63;4.18;;;9.40;99.90;;;;;;5089562;28;20409;-77
2022/04/07 00:47:10;;;;;;;10.75;3.40;;;9.30;99.90;;;;;;5090421;28;20410;-77
2022/04/07 00:49:36;;;;;;;9.70;3.20;;;9.30;99.90;;;;;;5090295;28;20390;-77
2022/04/07 00:52:02;;;;;;;10.30;2.90;;;9.30;99.90;;;;;;5090247;28;20788;-77
2022/04/07 00:54:28;;;;;;;10.60;3.27;;;9.30;99.90;;;;;;5089623;28;20405;-77
2022/04/07 00:56:56;;;;;;;6.20;1.70;;;9.30;99.90;;;;;;5089787;28;20451;-77
2022/04/07 00:59:23;;;;;;;5.97;1.83;;;9.30;99.90;;;;;;5090147;28;20426;-77
2022/04/07 01:01:49;;;;;;;7.13;2.00;;;9.30;99.90;;;;;;5089329;28;20413;-77
2022/04/07 01:04:16;;;;;;;7.75;2.03;;;9.30;99.90;;;;;;5089404;28;20734;-77
2022/04/07 01:06:42;;;;;;;8.25;2.50;;;9.30;99.90;;;;;;5088998;28;20868;-77
2022/04/07 01:09:09;;;;;;;6.57;1.90;;;9.20;99.90;;;;;;5088868;28;20499;-77
2022/04/07 01:11:37;;;;;;;8.70;2.10;;;9.20;99.90;;;;;;5071860;28;20938;-77
2022/04/07 01:14:03;;;;;;;7.93;1.70;;;9.20;99.90;;;;;;5089855;28;20457;-77
2022/04/07 01:16:30;;;;;;;6.10;1.73;;;9.30;99.90;;;;;;5090108;28;20413;-77
2022/04/07 01:18:59;;;;;;;9.93;2.03;;;9.20;99.90;;;;;;5089498;28;20515;-77
2022/04/07 01:21:25;;;;;;;8.95;2.42;;;9.30;99.90;;;;;;5089633;28;20402;-77
2022/04/07 01:24:00;;;;;;;7.95;1.95;;;9.30;99.90;;;;;;5071963;28;20818;-77
2022/04/07 01:26:27;;;;;;;8.63;2.17;;;9.30;99.90;;;;;;5088385;28;20788;-77
2022/04/07 01:28:52;;;;;;;9.38;2.08;;;9.30;99.90;;;;;;5088598;28;20972;-77
2022/04/07 01:31:18;;;;;;;10.88;2.38;;;9.30;99.90;;;;;;5088698;28;20485;-76
2022/04/07 01:33:44;;;;;;;9.32;2.35;;;9.30;99.90;;;;;;5088304;28;20410;-77
2022/04/07 01:36:12;;;;;;;10.68;2.78;;;9.30;99.90;;;;;;5089469;28;20884;-76
2022/04/07 01:38:38;;;;;;;10.45;2.80;;;9.30;99.90;;;;;;5087967;28;20521;-77
2022/04/07 01:41:04;;;;;;;10.32;2.67;;;9.30;99.90;;;;;;5089722;28;20499;-76
2022/04/07 01:43:30;;;;;;;9.27;2.70;;;9.20;99.90;;;;;;5088237;28;20768;-76
2022/04/07 01:45:57;;;;;;;10.35;3.63;;;9.20;99.90;;;;;;5089508;28;20690;-76
2022/04/07 01:48:23;;;;;;;14.02;3.90;;;9.20;99.90;;;;;;5088012;28;20772;-76
2022/04/07 01:50:51;;;;;;;13.37;4.20;;;9.10;99.90;;;;;;5089447;28;20402;-76
2022/04/07 01:53:18;;;;;;;14.48;3.45;;;9.00;99.90;;;;;;5089243;28;20399;-76
2022/04/07 01:55:43;;;;;;;10.70;2.67;;;9.00;99.90;;;;;;5088929;28;20401;-76
2022/04/07 01:58:10;;;;;;;9.63;1.85;;;8.90;99.90;;;;;;5089360;28;20405;-76
2022/04/07 02:00:38;;;;;;;9.80;2.20;;;8.80;99.90;;;;;;5087252;28;20433;-76
2022/04/07 02:03:08;;;;;;;11.02;2.33;;;8.70;99.90;;;;;;5087109;28;20481;-76
2022/04/07 02:05:35;;;;;;;9.23;2.55;;;8.70;99.90;;;;;;5089050;28;20406;-76
2022/04/07 02:08:01;;;;;;;12.52;3.90;;;8.60;99.90;;;;;;5089076;28;20401;-76
2022/04/07 02:10:28;;;;;;;10.88;4.00;;;8.60;99.90;;;;;;5089021;28;20741;-76
2022/04/07 02:12:54;;;;;;;12.52;4.10;;;8.70;99.90;;;;;;5087670;28;20409;-76
2022/04/07 02:15:19;;;;;;;12.80;4.32;;;8.70;99.90;;;;;;5087597;28;20402;-76
2022/04/07 02:17:45;;;;;;;12.67;4.47;;;8.70;99.90;;;;;;5088949;28;20804;-77
2022/04/07 02:20:11;;;;;;;14.18;4.30;;;8.70;99.90;;;;;;5088453;28;20509;-77
2022/04/07 02:22:37;;;;;;;13.63;4.10;;;8.70;99.90;;;;;;5088227;28;20520;-76
2022/04/07 02:25:04;;;;;;;12.15;4.10;;;8.70;99.90;;;;;;5088905;28;20410;-77
2022/04/07 02:27:37;;;;;;;15.82;4.15;;;8.70;99.90;;;;;;5088664;28;20394;-76
2022/04/07 02:30:05;;;;;;;14.57;3.58;;;8.70;99.90;;;;;;5088343;28;20402;-77
2022/04/07 02:32:31;;;;;;;13.77;3.28;;;8.70;99.90;;;;;;5088424;28;20413;-77
2022/04/07 02:34:57;;;;;;;11.60;3.70;;;8.70;99.90;;;;;;5070376;28;20401;-76
2022/04/07 02:37:25;;;;;;;15.73;3.67;;;8.80;99.90;;;;;;5087216;28;20421;-76
2022/04/07 02:39:52;;;;;;;19.98;4.15;;;8.80;99.90;;;;;;5088110;28;20468;-77
2022/04/07 02:42:18;;;;;;;15.85;3.47;;;8.90;99.90;;;;;;5087074;28;20426;-77
2022/04/07 02:44:43;;;;;;;15.03;3.97;;;8.90;99.90;;;;;;5088111;28;20832;-76
2022/04/07 02:47:09;;;;;;;13.40;3.97;;;8.90;99.90;;;;;;5088330;28;20481;-76
2022/04/07 02:49:34;;;;;;;15.63;4.13;;;9.00;99.90;;;;;;5087979;28;20807;-76
2022/04/07 02:52:00;;;;;;;16.63;4.40;;;9.00;99.90;;;;;;5088180;28;20405;-76
2022/04/07 02:54:25;;;;;;;15.23;3.87;;;9.00;99.90;;;;;;5086819;28;20462;-76
2022/04/07 02:56:51;;;;;;;15.70;3.80;;;9.00;99.90;;;;;;5086879;28;20501;-76
2022/04/07 02:59:16;;;;;;;17.33;4.43;;;9.00;99.90;;;;;;5085530;28;20529;-76
2022/04/07 03:01:43;;;;;;;18.60;4.13;;;9.00;99.90;;;;;;5086482;28;20444;-76
2022/04/07 03:04:09;;;;;;;19.20;4.43;;;9.10;99.90;;;;;;5086999;28;20484;-76
2022/04/07 03:06:35;;;;;;;19.47;4.80;;;9.00;99.90;;;;;;5087260;28;20440;-76
2022/04/07 03:09:01;;;;;;;15.70;4.20;;;9.00;99.90;;;;;;5087061;28;20924;-75
2022/04/07 03:11:26;;;;;;;15.10;4.05;;;9.00;99.90;;;;;;5069319;28;20410;-75
2022/04/07 03:13:52;;;;;;;15.65;4.30;;;8.90;99.90;;;;;;5085788;28;20772;-76
2022/04/07 03:16:18;;;;;;;18.17;4.87;;;8.90;99.90;;;;;;5086736;28;20408;-76
2022/04/07 03:18:43;;;;;;;17.45;4.95;;;8.90;99.90;;;;;;5085521;28;20996;-76
2022/04/07 03:21:09;;;;;;;16.87;5.40;;;8.90;99.90;;;;;;5087939;28;20402;-76
2022/04/07 03:23:35;;;;;;;15.50;5.07;;;8.90;99.90;;;;;;5086619;28;20406;-76
2022/04/07 03:26:01;;;;;;;17.45;5.32;;;9.00;99.90;;;;;;5087983;28;20757;-76
2022/04/07 03:28:27;;;;;;;14.63;5.22;;;8.90;99.90;;;;;;5086134;28;20417;-76
2022/04/07 03:30:53;;;;;;;16.95;5.30;;;8.90;99.90;;;;;;5069494;28;20405;-76
2022/04/07 03:33:19;;;;;;;15.63;5.37;;;9.00;99.90;;;;;;5086651;28;20782;-76
2022/04/07 03:35:45;;;;;;;14.88;5.63;;;9.00;99.90;;;;;;5086984;28;20764;-76
2022/04/07 03:38:10;;;;;;;12.03;4.83;;;8.90;99.90;;;;;;5086472;28;20405;-76
2022/04/07 03:40:36;;;;;;;14.57;4.85;;;9.00;99.90;;;;;;5087497;28;21632;-76
2022/04/07 03:43:02;;;;;;;13.38;4.30;;;9.00;99.90;;;;;;5087517;28;20409;-76
2022/04/07 03:45:28;;;;;;;16.67;4.80;;;9.10;99.90;;;;;;5087942;28;20476;-76
2022/04/07 03:47:54;;;;;;;12.50;4.22;;;9.10;99.90;;;;;;5087631;28;20486;-76
2022/04/07 03:50:20;;;;;;;14.33;3.97;;;9.10;99.90;;;;;;5087101;28;20478;-77
2022/04/07 03:52:46;;;;;;;14.85;3.80;;;9.10;99.90;;;;;;5087833;28;20398;-77
2022/04/07 03:55:12;;;;;;;12.70;4.13;;;9.10;99.90;;;;;;5087638;28;20519;-77
2022/04/07 03:57:37;;;;;;;15.18;4.30;;;9.20;99.90;;;;;;5087363;28;20498;-77
2022/04/07 04:00:05;;;;;;;14.20;3.95;;;9.10;99.90;;;;;;5087503;28;20904;-77
2022/04/07 04:02:31;;;;;;;11.80;4.07;;;9.20;99.90;;;;;;5086309;28;20402;-77
2022/04/07 04:04:56;;;;;;;11.68;3.45;;;9.10;99.90;;;;;;5087246;28;20481;-77
2022/04/07 04:07:22;;;;;;;12.27;3.33;;;9.10;99.90;;;;;;5086356;28;20467;-77
2022/04/07 04:09:47;;;;;;;11.73;3.77;;;9.10;99.90;;;;;;5086086;28;20409;-77
2022/04/07 04:12:13;;;;;;;14.55;3.60;;;9.10;99.90;;;;;;5087361;28;20402;-76
2022/04/07 04:14:39;;;;;;;14.30;3.40;;;9.10;99.90;;;;;;5087611;28;20632;-76
2022/04/07 04:17:05;;;;;;;13.53;2.83;;;9.10;99.90;;;;;;5085974;28;20398;-77
2022/04/07 04:19:32;;;;;;;12.80;3.45;;;9.10;99.90;;;;;;5086368;28;20422;-77
2022/04/07 04:21:58;;;;;;;13.70;3.40;;;9.10;99.90;;;;;;5086317;28;20692;-76
2022/04/07 04:24:24;;;;;;;12.77;3.20;;;9.10;99.90;;;;;;5085383;28;20406;-76
2022/04/07 04:26:49;;;;;;;13.38;3.38;;;9.00;99.90;;;;;;5087511;28;20403;-76
2022/04/07 04:29:15;;;;;;;16.07;3.70;;;9.00;99.90;;;;;;5089689;28;20406;-77
2022/04/07 04:31:40;;;;;;;14.45;4.05;;;8.90;99.90;;;;;;5089579;28;21220;-76
2022/04/07 04:34:06;;;;;;;16.80;4.10;;;8.90;99.90;;;;;;5088946;28;20409;-76
2022/04/07 04:36:34;;;;;;;18.05;3.70;;;8.90;99.90;;;;;;5089752;28;20402;-76
2022/04/07 04:39:00;;;;;;;14.48;3.60;;;8.90;99.90;;;;;;5090596;28;20475;-76
2022/04/07 04:41:25;;;;;;;13.27;3.20;;;8.80;99.90;;;;;;5090492;28;21145;-77
2022/04/07 04:43:51;;;;;;;16.57;3.33;;;8.90;99.90;;;;;;5090691;28;20915;-77
2022/04/07 04:46:17;;;;;;;13.60;3.20;;;8.80;99.90;;;;;;5088744;28;20440;-77
2022/04/07 04:48:42;;;;;;;16.57;3.30;;;8.90;99.90;;;;;;5090597;28;20402;-77
2022/04/07 04:51:08;;;;;;;15.70;3.50;;;8.90;99.90;;;;;;5090325;28;20413;-77
2022/04/07 04:53:34;;;;;;;15.70;2.73;;;8.90;99.90;;;;;;5090193;28;20773;-77
2022/04/07 04:55:59;;;;;;;14.97;3.50;;;8.90;99.90;;;;;;5089977;28;20690;-77
2022/04/07 04:58:25;;;;;;;16.85;3.30;;;8.80;99.90;;;;;;5089047;28;20409;-77
2022/04/07 05:00:50;;;;;;;16.53;3.07;;;8.90;99.90;;;;;;5090438;28;20758;-77
2022/04/07 05:03:16;;;;;;;14.25;3.28;;;8.90;99.90;;;;;;5088993;28;20892;-77
2022/04/07 05:05:42;;;;;;;16.17;3.10;;;8.90;99.90;;;;;;5088879;28;20493;-77
2022/04/07 05:08:08;;;;;;;15.63;3.27;;;8.90;99.90;;;;;;5089220;28;20399;-77
2022/04/07 05:10:34;;;;;;;15.27;3.40;;;8.90;99.90;;;;;;5088582;28;20437;-77
2022/04/07 05:12:59;;;;;;;14.73;3.17;;;8.90;99.90;;;;;;5088863;28;20423;-77
2022/04/07 05:15:25;;;;;;;14.88;2.65;;;8.90;99.90;;;;;;5089263;28;20402;-78
2022/04/07 05:17:52;;;;;;;11.83;2.70;;;8.90;99.90;;;;;;5089110;28;20450;-78
2022/04/07 05:20:18;;;;;;;15.85;3.50;;;8.90;99.90;;;;;;5088335;28;20490;-77
2022/04/07 05:22:44;;;;;;;18.65;3.97;;;8.90;99.90;;;;;;5088300;28;20434;-77
2022/04/07 05:25:10;;;;;;;17.25;4.15;;;8.80;99.90;;;;;;5089967;28;20843;-77
2022/04/07 05:27:36;;;;;;;19.00;4.03;;;8.70;99.90;;;;;;5088403;28;20406;-77
2022/04/07 05:30:13;;;;;;;18.93;4.27;;;8.70;99.90;;;;;;5088649;28;20814;-77
2022/04/07 05:32:39;;;;;;;21.45;4.93;;;8.60;99.90;;;;;;5087765;28;20406;-77
2022/04/07 05:35:05;;;;;;;17.48;4.35;;;8.60;99.90;;;;;;5089898;28;20500;-77
2022/04/07 05:37:31;;;;;;;18.70;3.90;;;8.60;99.90;;;;;;5089653;28;20446;-77
2022/04/07 05:39:59;;;;;;;14.43;3.40;;;8.60;99.90;;;;;;5089067;28;20520;-77
2022/04/07 05:42:25;;;;;;;9.45;2.20;;;8.50;99.90;;;;;;5088194;28;20417;-77
2022/04/07 05:44:51;;;;;;;9.10;1.70;;;8.40;99.90;;;;;;5088354;28;20944;-77
2022/04/07 05:47:16;;;;;;;6.27;1.23;;;8.20;99.90;;;;;;5088546;28;20507;-78
2022/04/07 05:49:42;;;;;;;5.85;0.95;;;7.90;99.90;;;;;;5080811;28;20923;-77
2022/04/07 05:52:07;;;;;;;6.73;1.10;;;7.70;99.90;;;;;;5088358;28;20410;-76
2022/04/07 05:54:34;;;;;;;8.35;1.20;;;7.50;99.90;;;;;;5083175;28;20496;-76
2022/04/07 05:57:00;;;;;;;5.38;1.05;;;7.30;99.90;;;;;;5083450;28;20472;-77
2022/04/07 05:59:26;;;;;;;5.13;0.93;;;7.10;99.90;;;;;;5077833;28;20429;-77
2022/04/07 06:01:51;;;;;;;6.57;1.00;;;6.90;99.90;;;;;;5088012;28;20772;-76
2022/04/07 06:04:17;;;;;;;7.93;1.02;;;6.80;99.90;;;;;;5078831;28;20412;-76
2022/04/07 06:06:43;;;;;;;6.57;0.90;;;6.70;99.90;;;;;;5086811;28;20494;-76
2022/04/07 06:09:08;;;;;;;6.67;1.03;;;6.70;99.90;;;;;;5084221;28;20494;-76
2022/04/07 06:11:34;;;;;;;8.13;1.50;;;6.70;99.90;;;;;;5087242;28;20405;-76
2022/04/07 06:14:00;;;;;;;9.25;1.35;;;6.70;99.90;;;;;;5088262;28;20405;-75
2022/04/07 06:16:25;;;;;;;10.27;1.70;;;6.70;99.90;;;;;;5086804;28;20471;-76
2022/04/07 06:18:52;;;;;;;11.63;2.10;;;6.70;99.90;;;;;;5069644;28;20416;-76
2022/04/07 06:21:19;;;;;;;8.07;1.33;;;6.70;99.90;;;;;;5067506;28;20404;-76
2022/04/07 06:23:45;;;;;;;7.57;1.10;;;6.70;99.90;;;;;;5073321;28;20431;-76
2022/04/07 06:26:11;;;;;;;6.40;1.10;;;6.60;99.90;;;;;;5067158;28;20410;-76
2022/04/07 06:28:39;;;;;;;7.30;1.30;;;6.50;99.90;;;;;;5067045;28;20435;-76
2022/04/07 06:31:04;;;;;;;6.65;1.17;;;6.40;99.90;;;;;;5075437;28;20432;-76
2022/04/07 06:33:30;;;;;;;8.03;0.83;;;6.30;99.90;;;;;;5087969;28;20398;-76
2022/04/07 06:35:56;;;;;;;4.63;0.80;;;6.10;99.90;;;;;;5088409;28;20413;-76
2022/04/07 06:38:21;;;;;;;5.90;0.77;;;6.10;99.90;;;;;;5080661;28;21157;-76
2022/04/07 06:40:47;;;;;;;5.82;0.98;;;6.00;99.90;;;;;;5068062;28;21013;-76
2022/04/07 06:43:12;;;;;;;4.73;0.70;;;6.00;99.90;;;;;;5078289;28;20417;-75
2022/04/07 06:45:38;;;;;;;6.25;1.02;;;6.00;99.90;;;;;;5088484;28;20394;-77
2022/04/07 06:48:04;;;;;;;5.77;0.80;;;6.00;99.90;;;;;;5086597;28;20410;-77
2022/04/07 06:50:31;;;;;;;6.45;0.70;;;6.00;99.90;;;;;;5068346;28;20953;-76
2022/04/07 06:52:57;;;;;;;5.65;0.90;;;6.00;99.90;;;;;;5085284;28;20422;-76
2022/04/07 06:55:24;;;;;;;4.60;0.73;;;6.00;99.90;;;;;;5088674;28;20405;-76
2022/04/07 06:57:55;;;;;;;4.63;0.63;;;6.00;99.90;;;;;;5082373;28;20476;-76
2022/04/07 07:00:24;;;;;;;3.20;0.70;;;6.00;99.90;;;;;;5073924;28;20516;-77
2022/04/07 07:02:52;;;;;;;5.63;1.05;;;6.00;99.90;;;;;;5088426;28;20398;-77
2022/04/07 07:05:18;;;;;;;4.05;0.60;;;6.00;99.90;;;;;;5069933;28;20417;-77
2022/04/07 07:07:44;;;;;;;6.10;0.60;;;6.00;99.90;;;;;;5087400;28;20402;-77
2022/04/07 07:10:11;;;;;;;2.97;0.60;;;5.90;99.90;;;;;;5085741;28;20726;-77
2022/04/07 07:12:36;;;;;;;2.83;0.47;;;5.90;99.90;;;;;;5069913;28;20409;-77
2022/04/07 07:15:03;;;;;;;6.25;1.13;;;5.90;99.90;;;;;;5088536;28;20405;-77
2022/04/07 07:17:33;;;;;;;4.40;0.77;;;5.90;99.90;;;;;;5088675;28;20434;-77
2022/04/07 07:20:07;;;;;;;5.03;0.65;;;5.90;99.90;;;;;;5088034;28;20494;-77
2022/04/07 07:22:34;;;;;;;6.75;0.80;;;5.90;99.90;;;;;;5087133;28;20418;-76
2022/04/07 07:25:00;;;;;;;5.40;0.70;;;5.90;99.90;;;;;;5086802;28;20946;-77
2022/04/07 07:27:25;;;;;;;2.40;0.55;;;5.90;99.90;;;;;;5073973;28;20432;-76
2022/04/07 07:29:51;;;;;;;2.97;0.38;;;5.90;99.90;;;;;;5085793;28;20475;-78
2022/04/07 07:32:17;;;;;;;1.45;0.40;;;5.90;99.90;;;;;;5076998;28;20489;-77
2022/04/07 07:34:43;;;;;;;2.88;0.60;;;5.90;99.90;;;;;;5087493;28;20394;-77
2022/04/07 07:37:08;;;;;;;4.37;0.70;;;6.00;99.90;;;;;;5078576;28;21554;-77
2022/04/07 07:39:34;;;;;;;3.35;0.45;;;6.00;99.90;;;;;;5069434;28;20513;-76
2022/04/07 07:42:00;;;;;;;2.25;0.50;;;6.00;99.90;;;;;;5086366;28;20481;-77
2022/04/07 07:44:25;;;;;;;3.80;0.60;;;6.00;99.90;;;;;;5086207;28;20588;-78
2022/04/07 07:46:51;;;;;;;3.22;0.55;;;6.00;99.90;;;;;;5079022;28;20420;-78
2022/04/07 07:49:17;;;;;;;5.95;0.80;;;6.00;99.90;;;;;;5066660;28;20409;-79
2022/04/07 07:51:42;;;;;;;5.03;0.70;;;6.10;99.90;;;;;;5071493;28;20424;-78
2022/04/07 07:54:08;;;;;;;3.47;0.40;;;6.00;99.90;;;;;;5086740;28;20409;-78
2022/04/07 07:56:34;;;;;;;3.40;0.50;;;6.00;99.90;;;;;;5086244;28;20448;-78
2022/04/07 07:59:00;;;;;;;3.05;0.32;;;6.10;99.90;;;;;;5087559;28;20418;-78
2022/04/07 08:01:26;;;;;;;4.73;0.70;;;6.10;99.90;;;;;;5085844;28;20417;-78
2022/04/07 08:03:52;;;;;;;3.45;0.60;;;6.20;99.90;;;;;;5072402;28;20421;-79
2022/04/07 08:06:18;;;;;;;3.40;0.55;;;6.20;99.90;;;;;;5089472;28;20760;-78
2022/04/07 08:08:44;;;;;;;2.70;0.50;;;6.20;99.90;;;;;;5089308;28;20497;-77
2022/04/07 08:11:10;;;;;;;4.50;0.73;;;6.30;99.90;;;;;;5088788;28;20484;-77
2022/04/07 08:13:36;;;;;;;3.70;0.60;;;6.30;99.90;;;;;;5078175;28;21138;-78
2022/04/07 08:16:02;;;;;;;4.70;0.60;;;6.30;99.90;;;;;;5076749;28;20469;-77
2022/04/07 08:18:27;;;;;;;5.73;1.30;;;6.30;99.90;;;;;;5069581;28;20410;-76
2022/04/07 08:20:53;;;;;;;4.95;1.27;;;6.40;99.90;;;;;;5081651;28;20429;-77
2022/04/07 08:23:18;;;;;;;5.25;1.15;;;6.50;99.90;;;;;;5076872;28;20431;-77
2022/04/07 08:25:44;;;;;;;7.27;0.90;;;6.50;99.90;;;;;;5053240;28;20856;-78
2022/04/07 08:28:10;;;;;;;3.72;0.60;;;6.50;99.90;;;;;;5072510;28;20419;-77
2022/04/07 08:30:36;;;;;;;4.38;0.85;;;6.60;99.90;;;;;;5070627;28;20457;-77
2022/04/07 08:33:03;;;;;;;3.60;0.80;;;6.60;99.90;;;;;;5069453;28;20403;-78
2022/04/07 08:35:29;;;;;;;3.13;0.50;;;6.70;99.90;;;;;;5083648;28;20417;-78
2022/04/07 08:37:55;;;;;;;3.97;0.50;;;6.90;99.90;;;;;;5072998;28;20951;-78
2022/04/07 08:40:21;;;;;;;3.83;0.50;;;6.90;99.90;;;;;;5087891;28;20807;-76
2022/04/07 08:42:47;;;;;;;4.82;1.08;;;7.10;99.90;;;;;;5089097;28;20416;-77
2022/04/07 08:45:13;;;;;;;4.07;0.98;;;7.20;99.90;;;;;;5089349;28;20431;-78
2022/04/07 08:47:40;;;;;;;6.50;1.30;;;7.40;99.90;;;;;;5091356;28;20956;-76
2022/04/07 08:50:07;;;;;;;5.90;0.80;;;7.60;99.90;;;;;;5089439;28;20413;-78
2022/04/07 08:52:33;;;;;;;3.70;0.50;;;7.70;99.90;;;;;;5082314;28;20452;-78
2022/04/07 08:54:59;;;;;;;5.05;0.90;;;7.80;99.90;;;;;;5070427;28;20498;-77
2022/04/07 08:57:27;;;;;;;6.33;1.10;;;8.00;99.90;;;;;;5075435;28;20439;-78
2022/04/07 08:59:52;;;;;;;5.18;0.80;;;8.10;99.90;;;;;;5089590;28;20430;-78
2022/04/07 09:02:20;;;;;;;4.25;0.60;;;8.20;99.90;;;;;;5067168;28;20430;-78
2022/04/07 09:04:45;;;;;;;6.82;0.90;;;8.30;99.90;;;;;;5087854;28;20913;-78
2022/04/07 09:07:14;;;;;;;4.15;0.70;;;8.40;99.90;;;;;;5088681;28;20437;-78
2022/04/07 09:09:40;;;;;;;5.68;0.80;;;8.60;99.90;;;;;;5090431;28;20402;-78
2022/04/07 09:12:07;;;;;;;4.03;0.77;;;8.60;99.90;;;;;;5070696;28;21052;-78
2022/04/07 09:14:34;;;;;;;6.18;1.20;;;8.70;99.90;;;;;;5079683;28;20455;-78
2022/04/07 09:17:01;;;;;;;6.22;0.80;;;8.90;99.90;;;;;;5080518;28;20429;-78
2022/04/07 09:19:30;;;;;;;4.53;0.70;;;9.00;99.90;;;;;;5070347;28;20430;-78
2022/04/07 09:22:06;;;;;;;6.03;0.82;;;9.20;99.90;;;;;;5069155;28;20456;-78
2022/04/07 09:24:40;;;;;;;7.85;0.95;;;9.40;99.90;;;;;;5084518;28;20445;-79
2022/04/07 09:27:08;;;;;;;5.70;1.00;;;9.90;99.90;;;;;;5068531;28;20956;-78
2022/04/07 09:29:43;;;;;;;5.43;1.05;;;10.10;99.90;;;;;;5089286;28;20421;-78
2022/04/07 09:32:24;;;;;;;5.72;0.80;;;10.00;99.90;;;;;;5089975;28;20418;-78
2022/04/07 09:34:53;;;;;;;6.05;1.00;;;9.90;99.90;;;;;;5075812;28;20424;-77
2022/04/07 09:37:24;;;;;;;5.35;0.90;;;9.90;99.90;;;;;;5088562;28;20479;-78
2022/04/07 09:40:12;;;;;;;5.38;0.70;;;9.90;99.90;;;;;;5089492;28;20426;-78
2022/04/07 09:42:41;;;;;;;8.27;1.10;;;10.30;99.90;;;;;;5089530;28;20493;-78
2022/04/07 09:45:11;;;;;;;7.28;1.13;;;10.90;99.90;;;;;;5088689;28;20420;-78
2022/04/07 09:47:45;;;;;;;6.82;1.10;;;11.40;99.90;;;;;;5089517;28;20425;-78
2022/04/07 09:50:24;;;;;;;8.93;1.17;;;11.90;99.90;;;;;;5089088;28;20464;-77
2022/04/07 09:52:57;;;;;;;6.93;0.90;;;12.10;99.90;;;;;;5072625;28;20412;-76
2022/04/07 09:55:29;;;;;;;8.90;1.48;;;11.80;99.90;;;;;;5068171;28;21340;-77
2022/04/07 09:57:56;;;;;;;8.02;1.50;;;11.40;99.90;;;;;;5081366;28;20984;-77
2022/04/07 10:00:22;;;;;;;8.57;1.30;;;11.20;99.90;;;;;;5087189;28;20479;-77
2022/04/07 10:02:48;;;;;;;6.47;1.15;;;11.10;99.90;;;;;;5087363;28;20406;-77
2022/04/07 10:05:14;;;;;;;7.80;1.48;;;10.90;99.90;;;;;;5086315;28;20421;-77
2022/04/07 10:07:42;;;;;;;8.55;1.38;;;11.30;99.90;;;;;;5067924;28;20435;-77
2022/04/07 10:10:08;;;;;;;7.55;1.38;;;11.50;99.90;;;;;;5068233;28;20408;-77
2022/04/07 10:12:34;;;;;;;8.98;1.40;;;11.60;99.90;;;;;;5067069;28;20469;-77
2022/04/07 10:15:02;;;;;;;8.68;1.38;;;11.30;99.90;;;;;;5078063;28;20417;-77
2022/04/07 10:17:28;;;;;;;6.50;1.48;;;11.00;99.90;;;;;;5067367;28;20502;-77
2022/04/07 10:20:00;;;;;;;8.18;1.30;;;10.70;99.90;;;;;;5067691;28;20522;-77
2022/04/07 10:22:44;;;;;;;7.30;1.25;;;10.40;99.90;;;;;;5067569;28;20404;-78
2022/04/07 10:25:11;;;;;;;9.55;1.88;;;9.90;99.90;;;;;;5068422;28;20522;-78
2022/04/07 10:27:45;;;;;;;8.32;1.17;;;9.40;99.90;;;;;;5066367;28;20426;-78
2022/04/07 10:30:16;;;;;;;5.47;0.93;;;8.80;99.90;;;;;;5067547;28;20411;-78
2022/04/07 10:32:46;;;;;;;7.15;1.40;;;8.40;99.90;;;;;;5072116;28;20425;-79
2022/04/07 10:35:28;;;;;;;7.40;1.23;;;8.20;99.90;;;;;;5076303;28;20442;-78
2022/04/07 10:38:03;;;;;;;8.38;1.52;;;8.90;99.90;;;;;;5065790;28;20419;-78
2022/04/07 10:40:35;;;;;;;11.65;2.00;;;9.70;99.90;;;;;;5065708;28;20514;-77
2022/04/07 10:43:05;;;;;;;9.37;1.70;;;9.90;99.90;;;;;;5078548;28;20430;-77
2022/04/07 10:45:34;;;;;;;12.35;2.33;;;9.80;99.90;;;;;;5084070;28;20414;-77
2022/04/07 10:48:17;;;;;;;8.07;1.10;;;9.60;99.90;;;;;;5086230;28;20469;-77
2022/04/07 10:51:00;;;;;;;6.90;1.10;;;9.10;99.90;;;;;;5084863;28;20434;-77
2022/04/07 10:53:33;;;;;;;5.03;1.00;;;8.50;99.90;;;;;;5085873;28;21463;-77
2022/04/07 10:56:00;;;;;;;5.15;1.20;;;8.10;99.90;;;;;;5085830;28;20398;-76
2022/04/07 10:58:42;;;;;;;6.55;1.33;;;7.80;99.90;;;;;;5085643;28;20414;-77
2022/04/07 11:01:13;;;;;;;9.88;1.65;;;7.90;99.90;;;;;;5090064;28;20417;-77
2022/04/07 11:03:41;;;;;;;9.25;1.67;;;8.50;99.90;;;;;;5072354;28;20510;-77
2022/04/07 11:06:07;;;;;;;9.65;1.83;;;9.20;99.90;;;;;;5080375;28;20402;-77
2022/04/07 11:08:33;;;;;;;11.05;2.13;;;9.70;99.90;;;;;;5068704;28;20422;-77
2022/04/07 11:11:00;;;;;;;11.48;2.00;;;9.80;99.90;;;;;;5070111;28;20411;-77
2022/04/07 11:13:50;;;;;;;9.90;1.98;;;9.60;99.90;;;;;;5066533;28;20399;-77
2022/04/07 11:16:35;;;;;;;11.03;2.00;;;9.50;99.90;;;;;;5067958;28;21086;-77
2022/04/07 11:19:36;;;;;;;11.30;2.05;;;9.30;99.90;;;;;;5084757;28;20433;-77
2022/04/07 11:22:12;;;;;;;9.63;2.20;;;9.80;99.90;;;;;;5076099;28;20449;-77
2022/04/07 11:24:43;;;;;;;8.40;1.60;;;10.40;99.90;;;;;;5077026;28;20459;-77
2022/04/07 11:27:35;;;;;;;12.95;2.35;;;10.30;99.90;;;;;;5087872;28;20470;-77
2022/04/07 11:30:08;;;;;;;10.27;2.03;;;10.20;99.90;;;;;;5086592;28;20985;-76
2022/04/07 11:32:35;;;;;;;10.57;2.17;;;10.30;99.90;;;;;;5086678;28;21325;-76
2022/04/07 11:35:17;;;;;;;10.40;1.90;;;10.20;99.90;;;;;;5069500;28;20462;-76
2022/04/07 11:37:43;;;;;;;10.95;1.90;;;10.80;99.90;;;;;;5071836;28;20468;-76
2022/04/07 11:40:10;;;;;;;14.43;2.33;;;11.20;99.90;;;;;;5072072;28;20542;-77
2022/04/07 11:42:37;;;;;;;11.35;2.22;;;11.50;99.90;;;;;;5071964;28;20445;-76
2022/04/07 11:45:04;;;;;;;10.23;2.10;;;11.60;99.90;;;;;;5080183;28;20417;-77
2022/04/07 11:47:34;;;;;;;9.75;2.10;;;11.50;99.90;;;;;;5091557;28;20768;-78
2022/04/07 11:50:05;;;;;;;12.97;2.37;;;12.00;99.90;;;;;;5091294;28;20513;-78
2022/04/07 11:52:32;;;;;;;12.60;2.40;;;12.40;99.90;;;;;;5091822;28;20413;-78
2022/04/07 11:55:00;;;;;;;12.48;2.40;;;12.10;99.90;;;;;;5091743;28;20397;-78
2022/04/07 11:57:28;;;;;;;9.27;1.95;;;11.80;99.90;;;;;;5091792;28;20398;-78
2022/04/07 11:59:55;;;;;;;9.23;1.83;;;11.80;99.90;;;;;;5090430;28;20548;-77
2022/04/07 12:02:22;;;;;;;10.87;2.10;;;11.40;99.90;;;;;;5091393;28;20394;-77
2022/04/07 12:05:01;;;;;;;14.10;2.47;;;11.20;99.90;;;;;;5094446;28;20440;-77
2022/04/07 12:07:27;;;;;;;12.38;2.30;;;11.00;99.90;;;;;;5104505;27;20445;-77
2022/04/07 12:10:05;;;;;;;10.30;2.20;;;10.80;99.90;;;;;;5091597;28;20400;-77
2022/04/07 12:12:31;;;;;;;12.02;2.42;;;10.80;99.90;;;;;;5091189;28;20439;-77
2022/04/07 12:14:57;;;;;;;10.43;1.92;;;10.90;99.90;;;;;;5080728;28;20510;-77
2022/04/07 12:17:22;;;;;;;11.05;1.90;;;10.80;99.90;;;;;;5086922;28;20398;-77
2022/04/07 12:19:49;;;;;;;10.90;2.93;;;10.60;99.90;;;;;;5091153;28;21034;-77
2022/04/07 12:22:16;;;;;;;8.80;1.50;;;10.50;99.90;;;;;;5090497;28;20401;-78
2022/04/07 12:25:05;;;;;;;11.63;2.05;;;10.40;99.90;;;;;;5090787;28;21035;-77
2022/04/07 12:27:34;;;;;;;10.52;2.08;;;10.50;99.90;;;;;;5091178;28;20413;-78
2022/04/07 12:30:00;;;;;;;8.18;1.70;;;11.00;99.90;;;;;;5080022;28;20472;-77
2022/04/07 12:32:40;;;;;;;9.23;1.95;;;11.40;99.90;;;;;;5070706;28;20399;-77
2022/04/07 12:35:06;;;;;;;9.80;1.80;;;11.30;99.90;;;;;;5070749;28;20862;-77
2022/04/07 12:37:36;;;;;;;10.10;1.83;;;11.00;99.90;;;;;;5072599;28;20898;-77
2022/04/07 12:40:04;;;;;;;9.38;1.70;;;10.70;99.90;;;;;;5084987;28;20425;-77
2022/04/07 12:42:29;;;;;;;9.48;1.80;;;10.00;99.90;;;;;;5080073;28;20488;-77
2022/04/07 12:45:06;;;;;;;10.77;1.70;;;8.70;99.90;;;;;;5069784;28;20491;-76
2022/04/07 12:47:32;;;;;;;9.23;1.70;;;7.70;99.90;;;;;;5073967;28;20502;-77
2022/04/07 12:50:01;;;;;;;10.80;1.65;;;7.40;99.90;;;;;;5081944;28;20402;-77
2022/04/07 12:52:41;;;;;;;7.88;1.20;;;7.30;99.90;;;;;;5088416;28;20978;-77